createdAt,value
2023-10-22T00:00:28.892Z,0.2
2023-10-22T00:01:37.580Z,0.2
2023-10-22T00:02:45.335Z,1
2023-10-22T00:03:55.092Z,0.7
2023-10-22T00:05:04.639Z,0.5
2023-10-22T00:06:13.353Z,0.6
2023-10-22T00:07:23.150Z,0.8
2023-10-22T00:08:30.963Z,0.6
2023-10-22T00:09:39.586Z,0.5
2023-10-22T00:10:49.269Z,0.4
2023-10-22T00:11:58.046Z,0.4
2023-10-22T00:13:07.634Z,0.3
2023-10-22T00:14:17.371Z,0.2
2023-10-22T00:15:25.032Z,0.8
2023-10-22T00:16:34.766Z,0.9
2023-10-22T00:17:42.442Z,0.7
2023-10-22T00:18:51.128Z,0.6
2023-10-22T00:20:00.820Z,0.4
2023-10-22T00:21:08.562Z,0.4
2023-10-22T00:22:18.236Z,0.5
2023-10-22T00:23:27.941Z,0.5
2023-10-22T00:24:35.842Z,0.6
2023-10-22T00:25:45.290Z,0.9
2023-10-22T00:26:52.973Z,0.7
2023-10-22T00:28:02.623Z,0.5
2023-10-22T00:29:12.337Z,0.3
2023-10-22T00:30:20.016Z,0.4
2023-10-22T00:31:29.726Z,0.3
2023-10-22T00:32:39.458Z,0.3
2023-10-22T00:33:47.147Z,0.4
2023-10-22T00:34:56.716Z,0.4
2023-10-22T00:36:04.401Z,0.5
2023-10-22T00:37:13.074Z,0.6
2023-10-22T00:38:22.729Z,0.5
2023-10-22T00:39:31.446Z,0.4
2023-10-22T00:40:41.153Z,0.4
2023-10-22T00:41:50.854Z,1
2023-10-22T00:43:00.659Z,0.8
2023-10-22T00:44:10.335Z,0.9
2023-10-22T00:45:18.030Z,0.6
2023-10-22T00:46:28.698Z,0.7
2023-10-22T00:47:38.392Z,0.7
2023-10-22T00:48:47.082Z,0.8
2023-10-22T00:49:56.745Z,0.5
2023-10-22T00:51:06.493Z,0.6
2023-10-22T00:52:15.143Z,0.4
2023-10-22T00:53:24.846Z,0.5
2023-10-22T00:54:32.494Z,0.7
2023-10-22T00:55:42.179Z,0.6
2023-10-22T00:56:52.117Z,0.6
2023-10-22T00:58:00.726Z,0.5
2023-10-22T00:59:10.390Z,0.5
2023-10-22T01:00:19.115Z,0.5
2023-10-22T01:01:27.829Z,0.5
2023-10-22T01:02:37.606Z,0.7
2023-10-22T01:03:46.248Z,0.4
2023-10-22T01:04:54.881Z,0.3
2023-10-22T01:06:04.558Z,0.6
2023-10-22T01:07:13.221Z,0.4
2023-10-22T01:08:21.901Z,0.6
2023-10-22T01:09:30.635Z,0.4
2023-10-22T01:10:38.288Z,0.5
2023-10-22T01:11:49.017Z,0.3
2023-10-22T01:12:56.793Z,0.3
2023-10-22T01:14:05.467Z,0.6
2023-10-22T01:15:15.172Z,0.5
2023-10-22T01:16:22.860Z,0.5
2023-10-22T01:17:32.521Z,0.3
2023-10-22T01:18:42.229Z,0.4
2023-10-22T01:19:50.835Z,0.3
2023-10-22T01:21:00.527Z,0.3
2023-10-22T01:22:09.213Z,0.4
2023-10-22T01:23:17.901Z,0.5
2023-10-22T01:24:27.592Z,0.8
2023-10-22T01:25:37.271Z,0.4
2023-10-22T01:26:45.975Z,0.3
2023-10-22T01:27:54.715Z,0.5
2023-10-22T01:29:03.451Z,0.6
2023-10-22T01:30:13.217Z,0.6
2023-10-22T01:31:20.808Z,0.7
2023-10-22T01:32:29.523Z,0.5
2023-10-22T01:33:39.289Z,0.6
2023-10-22T01:34:47.832Z,0.5
2023-10-22T01:35:57.580Z,0.6
2023-10-22T01:37:06.317Z,0.6
2023-10-22T01:38:13.971Z,0.3
2023-10-22T01:39:23.761Z,0.6
2023-10-22T01:40:32.337Z,0.7
2023-10-22T01:41:40.023Z,0.8
2023-10-22T01:42:49.686Z,0.5
2023-10-22T01:43:59.357Z,0.4
2023-10-22T01:45:09.138Z,0.5
2023-10-22T01:46:17.733Z,0.4
2023-10-22T01:47:27.440Z,0.4
2023-10-22T01:48:37.140Z,0.5
2023-10-22T01:49:45.790Z,0.6
2023-10-22T01:50:54.478Z,0.4
2023-10-22T01:52:04.138Z,0.4
2023-10-22T01:53:12.790Z,0.4
2023-10-22T01:54:22.527Z,0.6
2023-10-22T01:55:31.208Z,0.5
2023-10-22T01:56:39.892Z,0.5
2023-10-22T01:57:49.593Z,0.4
2023-10-22T01:58:57.278Z,0.3
2023-10-22T02:00:06.994Z,0.6
2023-10-22T02:01:15.691Z,0.7
2023-10-22T02:02:25.334Z,0.7
2023-10-22T02:03:35.266Z,0.5
2023-10-22T02:04:44.658Z,0.4
2023-10-22T02:05:54.380Z,0.5
2023-10-22T02:07:04.037Z,0.7
2023-10-22T02:08:12.734Z,0.7
2023-10-22T02:09:22.431Z,0.6
2023-10-22T02:10:30.095Z,0.5
2023-10-22T02:11:38.777Z,0.5
2023-10-22T02:12:48.487Z,0.6
2023-10-22T02:13:58.134Z,0.6
2023-10-22T02:15:07.839Z,0.5
2023-10-22T02:16:16.482Z,0.5
2023-10-22T02:17:25.174Z,0.5
2023-10-22T02:18:34.930Z,0.4
2023-10-22T02:19:42.558Z,0.5
2023-10-22T02:20:51.222Z,0.5
2023-10-22T02:22:00.883Z,0.4
2023-10-22T02:23:08.578Z,0.4
2023-10-22T02:24:18.297Z,0.6
2023-10-22T02:25:26.960Z,0.4
2023-10-22T02:26:34.640Z,0.5
2023-10-22T02:27:44.307Z,0.5
2023-10-22T02:28:51.991Z,0.6
2023-10-22T02:30:01.667Z,0.6
2023-10-22T02:31:11.383Z,0.6
2023-10-22T02:32:20.026Z,0.6
2023-10-22T02:33:29.834Z,0.9
2023-10-22T02:34:39.544Z,0.6
2023-10-22T02:35:49.130Z,0.5
2023-10-22T02:36:58.818Z,0.6
2023-10-22T02:38:07.505Z,0.7
2023-10-22T02:39:16.256Z,0.6
2023-10-22T02:40:25.911Z,0.8
2023-10-22T02:41:33.660Z,0.7
2023-10-22T02:42:43.353Z,0.7
2023-10-22T02:43:53.011Z,0.8
2023-10-22T02:45:00.819Z,0.6
2023-10-22T02:46:10.422Z,0.7
2023-10-22T02:47:20.098Z,0.6
2023-10-22T02:48:28.834Z,0.5
2023-10-22T02:49:38.484Z,0.5
2023-10-22T02:50:46.159Z,0.5
2023-10-22T02:51:55.802Z,0.7
2023-10-22T02:53:04.497Z,0.5
2023-10-22T02:54:12.181Z,0.5
2023-10-22T02:55:21.880Z,0.6
2023-10-22T02:56:30.550Z,0.7
2023-10-22T02:57:39.248Z,0.6
2023-10-22T02:58:49.067Z,0.7
2023-10-22T02:59:57.823Z,0.8
2023-10-22T03:01:07.465Z,0.8
2023-10-22T03:02:17.087Z,0.9
2023-10-22T03:03:25.834Z,1.2
2023-10-22T03:04:35.526Z,0.5
2023-10-22T03:05:43.127Z,0.7
2023-10-22T03:06:52.828Z,0.6
2023-10-22T03:08:02.489Z,0.7
2023-10-22T03:09:11.225Z,0.7
2023-10-22T03:10:20.813Z,0.9
2023-10-22T03:11:30.489Z,0.6
2023-10-22T03:12:39.172Z,0.9
2023-10-22T03:13:48.866Z,0.7
2023-10-22T03:14:56.600Z,0.8
2023-10-22T03:16:05.255Z,0.6
2023-10-22T03:17:14.893Z,0.6
2023-10-22T03:18:23.644Z,0.7
2023-10-22T03:19:33.261Z,0.9
2023-10-22T03:20:41.949Z,0.6
2023-10-22T03:21:50.649Z,0.7
2023-10-22T03:22:59.318Z,0.7
2023-10-22T03:24:07.050Z,0.8
2023-10-22T03:25:15.682Z,0.9
2023-10-22T03:26:25.349Z,0.8
2023-10-22T03:27:33.037Z,1
2023-10-22T03:28:42.740Z,0.9
2023-10-22T03:29:51.421Z,0.8
2023-10-22T03:30:59.139Z,0.7
2023-10-22T03:32:08.778Z,0.8
2023-10-22T03:33:17.536Z,0.8
2023-10-22T03:34:26.231Z,0.7
2023-10-22T03:35:35.962Z,0.9
2023-10-22T03:36:43.634Z,0.8
2023-10-22T03:37:52.360Z,0.9
2023-10-22T03:39:01.101Z,1.2
2023-10-22T03:40:10.744Z,0.9
2023-10-22T03:41:20.414Z,0.9
2023-10-22T03:42:29.086Z,0.7
2023-10-22T03:43:37.791Z,1
2023-10-22T03:44:47.488Z,1.1
2023-10-22T03:45:56.221Z,1.2
2023-10-22T03:47:05.862Z,1
2023-10-22T03:48:14.615Z,1
2023-10-22T03:49:22.283Z,0.7
2023-10-22T03:50:31.923Z,0.9
2023-10-22T03:51:40.598Z,1
2023-10-22T03:52:49.285Z,0.6
2023-10-22T03:53:58.972Z,0.9
2023-10-22T03:55:08.627Z,0.8
2023-10-22T03:56:18.317Z,0.7
2023-10-22T03:57:27.012Z,0.8
2023-10-22T03:58:36.714Z,0.8
2023-10-22T03:59:46.665Z,0.8
2023-10-22T04:00:55.336Z,0.8
2023-10-22T04:02:05.107Z,0.8
2023-10-22T04:03:13.780Z,1
2023-10-22T04:04:22.427Z,0.9
2023-10-22T04:05:32.074Z,1.2
2023-10-22T04:06:41.773Z,0.7
2023-10-22T04:07:51.436Z,0.8
2023-10-22T04:09:00.144Z,1
2023-10-22T04:10:08.821Z,0.7
2023-10-22T04:11:18.490Z,0.7
2023-10-22T04:12:28.216Z,0.7
2023-10-22T04:13:37.878Z,0.8
2023-10-22T04:14:47.557Z,0.7
2023-10-22T04:15:56.216Z,0.8
2023-10-22T04:17:05.892Z,0.7
2023-10-22T04:18:15.719Z,0.7
2023-10-22T04:19:23.260Z,0.8
2023-10-22T04:20:32.987Z,0.6
2023-10-22T04:21:41.663Z,0.6
2023-10-22T04:22:50.339Z,0.6
2023-10-22T04:24:00.056Z,0.8
2023-10-22T04:25:08.824Z,0.9
2023-10-22T04:26:18.513Z,0.8
2023-10-22T04:27:27.188Z,1.2
2023-10-22T04:28:36.831Z,1.1
2023-10-22T04:29:46.580Z,0.8
2023-10-22T04:30:56.281Z,1.1
2023-10-22T04:32:04.906Z,1.1
2023-10-22T04:33:14.683Z,1
2023-10-22T04:34:23.351Z,1
2023-10-22T04:35:33.061Z,1
2023-10-22T04:36:41.732Z,1.1
2023-10-22T04:37:50.467Z,0.9
2023-10-22T04:39:00.222Z,1
2023-10-22T04:40:06.855Z,1
2023-10-22T04:41:16.537Z,0.8
2023-10-22T04:42:26.283Z,0.9
2023-10-22T04:43:35.936Z,1
2023-10-22T04:44:45.608Z,1.2
2023-10-22T04:45:54.260Z,1
2023-10-22T04:47:01.989Z,0.9
2023-10-22T04:48:11.701Z,1
2023-10-22T04:49:19.360Z,1.2
2023-10-22T04:50:28.123Z,1
2023-10-22T04:51:36.778Z,1
2023-10-22T04:52:45.446Z,1.1
2023-10-22T04:53:54.130Z,1.2
2023-10-22T04:55:01.831Z,1.3
2023-10-22T04:56:10.508Z,1
2023-10-22T04:57:20.183Z,1
2023-10-22T04:58:29.904Z,1.1
2023-10-22T04:59:38.753Z,0.9
2023-10-22T05:00:48.423Z,1.2
2023-10-22T05:01:56.141Z,1.1
2023-10-22T05:03:05.862Z,1.2
2023-10-22T05:04:15.496Z,1.1
2023-10-22T05:05:24.205Z,1.1
2023-10-22T05:06:33.886Z,0.8
2023-10-22T05:07:41.572Z,0.8
2023-10-22T05:08:51.291Z,0.9
2023-10-22T05:10:00.986Z,0.8
2023-10-22T05:11:09.656Z,1
2023-10-22T05:12:19.404Z,0.8
2023-10-22T05:13:29.015Z,0.8
2023-10-22T05:14:38.934Z,1
2023-10-22T05:15:48.378Z,1.4
2023-10-22T05:16:56.053Z,1
2023-10-22T05:18:05.787Z,0.8
2023-10-22T05:19:15.449Z,1.1
2023-10-22T05:20:24.154Z,1
2023-10-22T05:21:33.832Z,0.9
2023-10-22T05:22:43.504Z,0.8
2023-10-22T05:23:52.338Z,1.1
2023-10-22T05:25:01.997Z,1.2
2023-10-22T05:26:11.577Z,1
2023-10-22T05:27:20.287Z,1.1
2023-10-22T05:28:29.986Z,0.9
2023-10-22T05:29:38.645Z,0.6
2023-10-22T05:30:48.353Z,1
2023-10-22T05:31:57.012Z,0.9
2023-10-22T05:33:06.793Z,1
2023-10-22T05:34:16.414Z,0.8
2023-10-22T05:35:26.094Z,0.7
2023-10-22T05:36:34.726Z,0.7
2023-10-22T05:37:44.432Z,0.6
2023-10-22T05:38:53.113Z,0.7
2023-10-22T05:40:02.803Z,0.5
2023-10-22T05:41:11.514Z,0.6
2023-10-22T05:42:20.258Z,0.8
2023-10-22T05:43:29.987Z,0.7
2023-10-22T05:44:38.965Z,0.9
2023-10-22T05:45:47.363Z,0.6
2023-10-22T05:46:57.118Z,0.5
2023-10-22T05:48:04.862Z,0.5
2023-10-22T05:49:14.507Z,0.6
2023-10-22T05:50:23.272Z,0.6
2023-10-22T05:51:31.110Z,0.5
2023-10-22T05:52:40.803Z,0.7
2023-10-22T05:53:49.475Z,0.7
2023-10-22T05:54:59.164Z,0.6
2023-10-22T05:56:06.816Z,0.8
2023-10-22T05:57:15.524Z,0.5
2023-10-22T05:58:25.140Z,0.5
2023-10-22T05:59:34.829Z,0.5
2023-10-22T06:00:44.574Z,0.4
2023-10-22T06:01:54.253Z,0.3
2023-10-22T06:03:03.015Z,0.4
2023-10-22T06:04:12.641Z,0.6
2023-10-22T06:05:24.045Z,0.5
2023-10-22T06:06:31.960Z,0.3
2023-10-22T06:07:41.642Z,0.4
2023-10-22T06:08:50.377Z,0.4
2023-10-22T06:10:00.007Z,0.7
2023-10-22T06:11:08.693Z,0.8
2023-10-22T06:12:16.344Z,0.7
2023-10-22T06:13:26.022Z,0.7
2023-10-22T06:14:34.668Z,0.7
2023-10-22T06:15:44.441Z,0.7
2023-10-22T06:16:54.022Z,1.1
2023-10-22T06:18:01.777Z,1.2
2023-10-22T06:19:11.417Z,1.2
2023-10-22T06:20:21.040Z,1.3
2023-10-22T06:21:30.719Z,1.2
2023-10-22T06:22:40.422Z,1.3
2023-10-22T06:23:49.134Z,1.2
2023-10-22T06:24:57.783Z,1
2023-10-22T06:26:07.482Z,1.1
2023-10-22T06:27:15.180Z,1.2
2023-10-22T06:28:23.857Z,1
2023-10-22T06:29:32.505Z,1
2023-10-22T06:30:40.192Z,1
2023-10-22T06:31:49.884Z,0.8
2023-10-22T06:32:58.666Z,0.8
2023-10-22T06:34:07.286Z,0.9
2023-10-22T06:35:16.900Z,0.8
2023-10-22T06:36:26.614Z,0.7
2023-10-22T06:37:36.295Z,0.7
2023-10-22T06:38:45.008Z,0.6
2023-10-22T06:39:52.633Z,0.5
2023-10-22T06:41:02.306Z,0.7
2023-10-22T06:42:10.037Z,0.7
2023-10-22T06:43:19.673Z,0.7
2023-10-22T06:44:29.331Z,0.9
2023-10-22T06:45:38.063Z,0.6
2023-10-22T06:46:46.688Z,0.8
2023-10-22T06:47:56.376Z,0.9
2023-10-22T06:49:04.994Z,0.9
2023-10-22T06:50:14.661Z,1.3
2023-10-22T06:51:22.330Z,0.7
2023-10-22T06:52:31.950Z,0.4
2023-10-22T06:53:41.616Z,0.9
2023-10-22T06:54:49.276Z,0.4
2023-10-22T06:55:58.973Z,0.7
2023-10-22T06:57:08.659Z,1.3
2023-10-22T06:58:17.323Z,0.4
2023-10-22T06:59:27.014Z,1
2023-10-22T07:00:34.687Z,1
2023-10-22T07:01:45.333Z,0.6
2023-10-22T07:02:55.066Z,0.8
2023-10-22T07:04:06.028Z,1
2023-10-22T07:05:15.327Z,0.8
2023-10-22T07:06:24.057Z,0.5
2023-10-22T07:07:31.653Z,0.4
2023-10-22T07:08:41.296Z,0.6
2023-10-22T07:09:50.915Z,0.5
2023-10-22T07:10:58.670Z,0.4
2023-10-22T07:12:07.339Z,0.4
2023-10-22T07:13:17.034Z,0.3
2023-10-22T07:14:26.729Z,0.4
2023-10-22T07:15:36.399Z,0.4
2023-10-22T07:16:45.127Z,0.4
2023-10-22T07:17:54.892Z,0.4
2023-10-22T07:19:03.515Z,0.4
2023-10-22T07:20:12.176Z,0.4
2023-10-22T07:21:21.867Z,0.4
2023-10-22T07:22:29.514Z,0.4
2023-10-22T07:23:39.195Z,0.4
2023-10-22T07:24:47.862Z,0.4
2023-10-22T07:25:57.560Z,0.5
2023-10-22T07:27:07.279Z,0.6
2023-10-22T07:28:14.936Z,0.5
2023-10-22T07:29:24.591Z,0.7
2023-10-22T07:30:34.320Z,0.5
2023-10-22T07:31:43.015Z,0.6
2023-10-22T07:32:52.700Z,0.7
2023-10-22T07:34:01.303Z,0.6
2023-10-22T07:35:10.071Z,0.8
2023-10-22T07:36:19.736Z,0.6
2023-10-22T07:37:28.349Z,0.7
2023-10-22T07:38:37.026Z,0.6
2023-10-22T07:39:46.696Z,0.6
2023-10-22T07:40:55.418Z,0.7
2023-10-22T07:42:05.068Z,0.6
2023-10-22T07:43:14.797Z,0.7
2023-10-22T07:44:23.630Z,0.7
2023-10-22T07:45:33.199Z,0.8
2023-10-22T07:46:40.777Z,0.8
2023-10-22T07:47:50.515Z,0.6
2023-10-22T07:49:00.147Z,0.8
2023-10-22T07:50:08.850Z,0.8
2023-10-22T07:51:18.571Z,0.7
2023-10-22T07:52:27.301Z,0.7
2023-10-22T07:53:37.108Z,0.8
2023-10-22T07:54:46.824Z,0.9
2023-10-22T07:55:55.505Z,1
2023-10-22T07:57:05.194Z,0.8
2023-10-22T07:58:12.828Z,0.8
2023-10-22T07:59:21.481Z,1.2
2023-10-22T08:00:31.146Z,0.9
2023-10-22T08:01:40.070Z,1.1
2023-10-22T08:02:48.786Z,0.9
2023-10-22T08:03:57.557Z,1
2023-10-22T08:05:06.152Z,0.8
2023-10-22T08:06:15.846Z,0.9
2023-10-22T08:07:23.489Z,1
2023-10-22T08:08:32.135Z,1
2023-10-22T08:09:41.785Z,0.9
2023-10-22T08:10:50.500Z,0.9
2023-10-22T08:12:00.303Z,0.9
2023-10-22T08:13:09.865Z,1
2023-10-22T08:14:19.549Z,1.1
2023-10-22T08:15:29.251Z,1
2023-10-22T08:16:36.892Z,0.9
2023-10-22T08:17:48.533Z,0.9
2023-10-22T08:18:56.252Z,0.8
2023-10-22T08:20:04.948Z,1
2023-10-22T08:21:13.606Z,1.1
2023-10-22T08:22:23.248Z,1
2023-10-22T08:23:30.901Z,0.7
2023-10-22T08:24:40.570Z,0.8
2023-10-22T08:25:48.272Z,0.5
2023-10-22T08:26:55.935Z,0.4
2023-10-22T08:28:05.629Z,0.2
2023-10-22T08:29:15.464Z,0.4
2023-10-22T08:30:25.144Z,0.4
2023-10-22T08:31:33.800Z,0.7
2023-10-22T08:32:41.472Z,1.3
2023-10-22T08:33:51.236Z,1.7
2023-10-22T08:34:59.831Z,0.3
2023-10-22T08:36:09.612Z,1.6
2023-10-22T08:37:19.222Z,0.9
2023-10-22T08:38:26.906Z,0.4
2023-10-22T08:39:36.572Z,0.5
2023-10-22T08:40:46.303Z,0.4
2023-10-22T08:41:54.996Z,0.6
2023-10-22T08:43:04.658Z,0.4
2023-10-22T08:44:13.361Z,0.4
2023-10-22T08:45:22.133Z,0.4
2023-10-22T08:46:31.767Z,0.3
2023-10-22T08:47:40.537Z,0.1
2023-10-22T08:48:49.188Z,0.3
2023-10-22T08:49:58.922Z,0.1
2023-10-22T08:51:07.644Z,0.2
2023-10-22T08:52:17.308Z,0.3
2023-10-22T08:53:24.961Z,0.2
2023-10-22T08:54:34.685Z,0.3
2023-10-22T08:55:44.318Z,0.5
2023-10-22T08:56:53.018Z,0.6
2023-10-22T08:58:02.659Z,0.7
2023-10-22T08:59:11.330Z,0.5
2023-10-22T09:00:20.159Z,0.6
2023-10-22T09:01:29.760Z,0.4
2023-10-22T09:02:37.674Z,0.4
2023-10-22T09:03:46.403Z,0.3
2023-10-22T09:04:56.042Z,0.2
2023-10-22T09:06:03.799Z,0.2
2023-10-22T09:07:13.432Z,0.3
2023-10-22T09:08:23.134Z,0.2
2023-10-22T09:09:30.790Z,0.2
2023-10-22T09:10:40.530Z,0.2
2023-10-22T09:11:48.270Z,0.4
2023-10-22T09:12:57.988Z,0.2
2023-10-22T09:14:07.672Z,0.2
2023-10-22T09:15:15.438Z,0.3
2023-10-22T09:16:25.136Z,0.2
2023-10-22T09:17:34.858Z,0.1
2023-10-22T09:18:44.505Z,0.2
2023-10-22T09:19:54.171Z,0.3
2023-10-22T09:21:01.919Z,0.1
2023-10-22T09:22:10.507Z,0.1
2023-10-22T09:23:20.203Z,0.2
2023-10-22T09:24:27.919Z,0
2023-10-22T09:25:37.610Z,0.1
2023-10-22T09:26:46.287Z,0
2023-10-22T09:27:53.977Z,0
2023-10-22T09:29:03.677Z,0
2023-10-22T09:30:11.394Z,0
2023-10-22T09:31:20.099Z,0.1
2023-10-22T09:32:31.016Z,0.2
2023-10-22T09:33:38.579Z,0.3
2023-10-22T09:34:48.143Z,0.1
2023-10-22T09:35:57.030Z,0.2
2023-10-22T09:37:06.489Z,0
2023-10-22T09:38:16.164Z,0.1
2023-10-22T09:39:24.883Z,0.1
2023-10-22T09:40:34.517Z,0
2023-10-22T09:41:44.208Z,0
2023-10-22T09:42:51.885Z,0
2023-10-22T09:44:01.574Z,0.3
2023-10-22T09:45:10.240Z,0
2023-10-22T09:46:17.896Z,0
2023-10-22T09:47:27.579Z,0
2023-10-22T09:48:35.366Z,0.1
2023-10-22T09:49:45.006Z,0
2023-10-22T09:50:53.817Z,0
2023-10-22T09:52:03.387Z,0
2023-10-22T09:53:13.088Z,0
2023-10-22T09:54:21.789Z,0
2023-10-22T09:55:31.449Z,0.1
2023-10-22T09:56:40.189Z,0
2023-10-22T09:57:48.916Z,0
2023-10-22T09:58:58.653Z,0
2023-10-22T10:00:07.353Z,0.1
2023-10-22T10:01:17.099Z,0.1
2023-10-22T10:02:26.795Z,0
2023-10-22T10:03:36.687Z,0
2023-10-22T10:04:46.321Z,0
2023-10-22T10:05:56.031Z,0.2
2023-10-22T10:07:05.651Z,0.1
2023-10-22T10:08:15.318Z,0
2023-10-22T10:09:25.013Z,0
2023-10-22T10:10:33.653Z,0
2023-10-22T10:11:43.353Z,0.1
2023-10-22T10:12:52.047Z,0
2023-10-22T10:14:01.755Z,0.1
2023-10-22T10:15:11.443Z,0.2
2023-10-22T10:16:20.094Z,0.2
2023-10-22T10:17:29.806Z,0
2023-10-22T10:18:38.516Z,0
2023-10-22T10:19:48.203Z,0
2023-10-22T10:20:57.840Z,0
2023-10-22T10:22:05.542Z,0.1
2023-10-22T10:23:15.213Z,0
2023-10-22T10:24:25.016Z,0.1
2023-10-22T10:25:33.615Z,0
2023-10-22T10:26:43.376Z,0.1
2023-10-22T10:27:52.158Z,0
2023-10-22T10:29:01.905Z,0
2023-10-22T10:30:11.559Z,0.1
2023-10-22T10:31:19.240Z,0.1
2023-10-22T10:32:28.924Z,0
2023-10-22T10:33:37.745Z,0
2023-10-22T10:34:47.320Z,0.1
2023-10-22T10:35:57.106Z,0.1
2023-10-22T10:37:05.713Z,0
2023-10-22T10:38:15.504Z,0.1
2023-10-22T10:39:25.067Z,0
2023-10-22T10:40:32.724Z,0
2023-10-22T10:41:42.379Z,0.1
2023-10-22T10:42:51.092Z,0
2023-10-22T10:43:58.736Z,0
2023-10-22T10:45:08.457Z,0
2023-10-22T10:46:16.131Z,0
2023-10-22T10:47:25.956Z,0.1
2023-10-22T10:48:35.635Z,0.1
2023-10-22T10:49:43.230Z,0.1
2023-10-22T10:50:52.955Z,0.1
2023-10-22T10:52:02.595Z,0.1
2023-10-22T10:53:11.274Z,0.2
2023-10-22T10:54:21.052Z,0.2
2023-10-22T10:55:29.678Z,0
2023-10-22T10:56:37.443Z,0.1
2023-10-22T10:57:46.111Z,0
2023-10-22T10:58:54.766Z,0
2023-10-22T11:00:04.528Z,0
2023-10-22T11:01:13.162Z,0
2023-10-22T11:02:21.840Z,0
2023-10-22T11:03:31.726Z,0.1
2023-10-22T11:04:40.373Z,0
2023-10-22T11:05:50.106Z,0
2023-10-22T11:07:09.906Z,0
2023-10-22T11:08:08.522Z,0
2023-10-22T11:09:17.215Z,0
2023-10-22T11:10:25.888Z,0
2023-10-22T11:11:35.615Z,0.1
2023-10-22T11:12:45.256Z,0.1
2023-10-22T11:13:53.957Z,0
2023-10-22T11:15:02.641Z,0
2023-10-22T11:16:12.349Z,0.1
2023-10-22T11:17:21.987Z,0
2023-10-22T11:18:30.703Z,0
2023-10-22T11:19:39.487Z,0.1
2023-10-22T11:20:49.023Z,0
2023-10-22T11:21:58.699Z,0
2023-10-22T11:23:06.380Z,0
2023-10-22T11:24:16.131Z,0.1
2023-10-22T11:25:25.831Z,0
2023-10-22T11:26:34.571Z,0
2023-10-22T11:27:44.264Z,0
2023-10-22T11:28:52.945Z,0
2023-10-22T11:30:03.681Z,0.1
2023-10-22T11:31:13.347Z,0
2023-10-22T11:32:22.060Z,0.1
2023-10-22T11:33:30.882Z,0
2023-10-22T11:34:40.497Z,0
2023-10-22T11:35:49.257Z,0
2023-10-22T11:36:57.912Z,0
2023-10-22T11:38:06.625Z,0.1
2023-10-22T11:39:19.340Z,0
2023-10-22T11:40:26.006Z,0.1
2023-10-22T11:41:34.631Z,0
2023-10-22T11:42:43.304Z,0
2023-10-22T11:43:52.977Z,0
2023-10-22T11:44:59.640Z,0
2023-10-22T11:46:09.348Z,0
2023-10-22T11:47:18.000Z,0.1
2023-10-22T11:48:27.806Z,0
2023-10-22T11:49:36.410Z,0.1
2023-10-22T11:50:44.112Z,0
2023-10-22T11:51:53.825Z,0
2023-10-22T11:53:03.491Z,0
2023-10-22T11:54:12.228Z,0
2023-10-22T11:55:36.129Z,0
2023-10-22T11:56:30.554Z,0.1
2023-10-22T11:57:40.276Z,0.1
2023-10-22T11:58:48.948Z,0.1
2023-10-22T11:59:58.666Z,0
2023-10-22T12:01:08.431Z,0.1
2023-10-22T12:02:16.139Z,0.1
2023-10-22T12:03:24.892Z,0
2023-10-22T12:04:34.765Z,0.1
2023-10-22T12:05:42.482Z,0
2023-10-22T12:06:52.180Z,0.1
2023-10-22T12:08:00.866Z,0.1
2023-10-22T12:09:11.568Z,0
2023-10-22T12:10:21.206Z,0
2023-10-22T12:11:30.920Z,0
2023-10-22T12:12:40.652Z,0.1
2023-10-22T12:13:50.324Z,0.1
2023-10-22T12:14:59.042Z,0.1
2023-10-22T12:16:08.705Z,0.1
2023-10-22T12:17:18.833Z,0.1
2023-10-22T12:18:27.132Z,0.1
2023-10-22T12:19:36.719Z,0.1
2023-10-22T12:20:45.446Z,0.2
2023-10-22T12:21:54.151Z,0.2
2023-10-22T12:23:03.898Z,0.2
2023-10-22T12:24:24.254Z,0.1
2023-10-22T12:25:24.212Z,0
2023-10-22T12:26:32.899Z,0
2023-10-22T12:27:41.658Z,0.1
2023-10-22T12:28:51.345Z,0.1
2023-10-22T12:29:59.085Z,0.2
2023-10-22T12:31:08.739Z,0.1
2023-10-22T12:32:18.396Z,0.1
2023-10-22T12:33:27.200Z,0.1
2023-10-22T12:34:36.948Z,0
2023-10-22T12:35:45.559Z,0.1
2023-10-22T12:36:55.257Z,0.1
2023-10-22T12:38:04.956Z,0.2
2023-10-22T12:39:13.662Z,0.3
2023-10-22T12:40:22.359Z,0.4
2023-10-22T12:41:32.041Z,0.1
2023-10-22T12:42:40.714Z,0.1
2023-10-22T12:43:50.377Z,0.1
2023-10-22T12:44:59.160Z,0.1
2023-10-22T12:46:07.796Z,0.1
2023-10-22T12:47:17.466Z,0.1
2023-10-22T12:48:25.134Z,0
2023-10-22T12:49:33.746Z,0
2023-10-22T12:50:43.420Z,0.1
2023-10-22T12:51:51.089Z,0.1
2023-10-22T12:53:00.755Z,0.2
2023-10-22T12:54:09.519Z,0.1
2023-10-22T12:55:18.151Z,0.2
2023-10-22T12:56:27.843Z,0.1
2023-10-22T12:57:36.664Z,0.1
2023-10-22T12:58:46.325Z,0.2
2023-10-22T12:59:54.992Z,0.2
2023-10-22T13:01:04.740Z,0.3
2023-10-22T13:02:14.408Z,0.2
2023-10-22T13:03:24.152Z,0.1
2023-10-22T13:04:34.126Z,0.1
2023-10-22T13:05:43.699Z,0
2023-10-22T13:06:53.440Z,0.1
2023-10-22T13:08:02.150Z,0.2
2023-10-22T13:09:11.830Z,0.2
2023-10-22T13:10:19.495Z,0.2
2023-10-22T13:11:29.156Z,0.2
2023-10-22T13:12:37.881Z,0.3
2023-10-22T13:13:45.544Z,0.4
2023-10-22T13:14:55.291Z,0.3
2023-10-22T13:16:03.082Z,0.3
2023-10-22T13:17:12.768Z,0.2
2023-10-22T13:18:22.617Z,0
2023-10-22T13:19:32.116Z,0.1
2023-10-22T13:20:41.796Z,0.1
2023-10-22T13:21:50.538Z,0.1
2023-10-22T13:22:59.267Z,0.1
2023-10-22T13:24:07.957Z,0.2
2023-10-22T13:25:17.598Z,0.1
2023-10-22T13:26:26.278Z,0
2023-10-22T13:27:36.010Z,0.2
2023-10-22T13:28:45.637Z,0.1
2023-10-22T13:29:54.330Z,0.1
2023-10-22T13:31:04.010Z,0.2
2023-10-22T13:32:12.964Z,0.1
2023-10-22T13:33:23.555Z,0.1
2023-10-22T13:34:33.133Z,0.1
2023-10-22T13:35:42.824Z,0.2
2023-10-22T13:36:52.496Z,0.1
2023-10-22T13:38:01.182Z,0.1
2023-10-22T13:39:10.947Z,0.1
2023-10-22T13:40:19.613Z,0.1
2023-10-22T13:41:28.328Z,0.1
2023-10-22T13:42:37.994Z,0.2
2023-10-22T13:43:47.728Z,0.2
2023-10-22T13:44:57.510Z,0.2
2023-10-22T13:46:07.116Z,0.1
2023-10-22T13:47:15.816Z,0.1
2023-10-22T13:48:25.616Z,0.1
2023-10-22T13:49:33.291Z,0.1
2023-10-22T13:50:42.919Z,0.2
2023-10-22T13:51:51.575Z,0.1
2023-10-22T13:53:01.269Z,0.2
2023-10-22T13:54:10.955Z,0
2023-10-22T13:55:19.695Z,0.1
2023-10-22T13:56:28.318Z,0.1
2023-10-22T13:57:38.007Z,0.2
2023-10-22T13:58:47.646Z,0
2023-10-22T13:59:57.441Z,0.4
2023-10-22T14:01:06.052Z,0
2023-10-22T14:02:13.746Z,0
2023-10-22T14:03:23.540Z,0
2023-10-22T14:04:31.522Z,0
2023-10-22T14:05:40.656Z,0
2023-10-22T14:06:50.337Z,0
2023-10-22T14:07:59.004Z,0.1
2023-10-22T14:09:08.787Z,0
2023-10-22T14:10:17.495Z,0.1
2023-10-22T14:11:26.179Z,0
2023-10-22T14:12:35.936Z,0.1
2023-10-22T14:13:43.657Z,0
2023-10-22T14:14:52.410Z,0
2023-10-22T14:16:00.280Z,0
2023-10-22T14:17:09.018Z,0
2023-10-22T14:18:19.774Z,0
2023-10-22T14:19:29.357Z,0
2023-10-22T14:20:39.111Z,0.1
2023-10-22T14:21:48.852Z,0.1
2023-10-22T14:22:57.516Z,0
2023-10-22T14:24:06.292Z,0
2023-10-22T14:25:16.947Z,0
2023-10-22T14:26:26.632Z,0
2023-10-22T14:27:36.362Z,0.1
2023-10-22T14:28:46.114Z,0.1
2023-10-22T14:29:54.813Z,0
2023-10-22T14:31:03.530Z,0
2023-10-22T14:32:11.222Z,0
2023-10-22T14:33:20.989Z,0
2023-10-22T14:35:40.393Z,0
2023-10-22T14:36:50.071Z,0
2023-10-22T14:37:59.778Z,0.1
2023-10-22T14:39:09.444Z,0.1
2023-10-22T14:40:19.166Z,0
2023-10-22T14:41:28.861Z,0
2023-10-22T14:42:38.581Z,0
2023-10-22T14:43:48.213Z,0
2023-10-22T14:44:55.902Z,0.2
2023-10-22T14:46:05.596Z,0.2
2023-10-22T14:47:14.261Z,0.3
2023-10-22T14:48:22.061Z,0
2023-10-22T14:49:31.658Z,0.2
2023-10-22T14:50:40.302Z,0.1
2023-10-22T14:51:48.974Z,0.2
2023-10-22T14:52:58.630Z,0
2023-10-22T14:54:07.363Z,0
2023-10-22T14:55:17.010Z,0
2023-10-22T14:56:26.663Z,0
2023-10-22T14:57:35.445Z,0.1
2023-10-22T14:58:45.032Z,0.1
2023-10-22T14:59:52.712Z,0.1
2023-10-22T15:01:02.379Z,0.2
2023-10-22T15:02:12.062Z,0.1
2023-10-22T15:03:21.897Z,0.1
2023-10-22T15:04:32.025Z,0.1
2023-10-22T15:05:41.686Z,0.1
2023-10-22T15:06:50.376Z,0.1
2023-10-22T15:08:00.062Z,0.1
2023-10-22T15:09:09.774Z,0.1
2023-10-22T15:10:18.448Z,0.1
2023-10-22T15:11:27.097Z,0.1
2023-10-22T15:12:36.818Z,0.3
2023-10-22T15:13:46.498Z,0.3
2023-10-22T15:14:56.169Z,0.2
2023-10-22T15:16:04.876Z,0.4
2023-10-22T15:17:13.511Z,0.4
2023-10-22T15:18:21.251Z,0.5
2023-10-22T15:19:29.848Z,0.3
2023-10-22T15:20:39.506Z,0.2
2023-10-22T15:21:48.185Z,0.2
2023-10-22T15:22:57.858Z,0.1
2023-10-22T15:24:07.557Z,0.1
2023-10-22T15:25:15.226Z,0.1
2023-10-22T15:26:24.994Z,0
2023-10-22T15:27:32.646Z,0.1
2023-10-22T15:28:42.278Z,0
2023-10-22T15:29:52.061Z,0.1
2023-10-22T15:30:59.753Z,0.1
2023-10-22T15:32:09.467Z,0.2
2023-10-22T15:33:18.310Z,0.1
2023-10-22T15:34:27.785Z,0.1
2023-10-22T15:35:38.482Z,0.1
2023-10-22T15:36:46.155Z,0.1
2023-10-22T15:37:54.802Z,0.2
2023-10-22T15:39:04.493Z,0.3
2023-10-22T15:40:13.157Z,0.1
2023-10-22T15:41:23.851Z,0.1
2023-10-22T15:42:33.568Z,0.1
2023-10-22T15:43:43.188Z,0.1
2023-10-22T15:44:51.877Z,0
2023-10-22T15:45:59.553Z,0.2
2023-10-22T15:47:09.244Z,0.2
2023-10-22T15:48:18.199Z,0.2
2023-10-22T15:49:26.706Z,0.2
2023-10-22T15:50:36.442Z,0.3
2023-10-22T15:51:46.120Z,0.1
2023-10-22T15:52:55.851Z,0.1
2023-10-22T15:54:04.578Z,0.2
2023-10-22T15:55:13.415Z,0.2
2023-10-22T15:56:23.186Z,0.2
2023-10-22T15:57:31.923Z,0.2
2023-10-22T15:58:40.630Z,0.2
2023-10-22T15:59:50.283Z,0.2
2023-10-22T16:01:00.056Z,0.3
2023-10-22T16:02:09.718Z,0.2
2023-10-22T16:03:19.473Z,0.3
2023-10-22T16:04:27.094Z,0.1
2023-10-22T16:05:36.962Z,0.2
2023-10-22T16:06:46.659Z,0.3